sensor_id;sensor_type;location;lat;lon;timestamp;P1;durP1;ratioP1;P2;durP2;ratioP2
78927;SDS011;68322;22.726;113.540;2023-03-31T00:01:48;110.25;;;29.58;;
78927;SDS011;68322;22.726;113.540;2023-03-31T00:04:17;128.40;;;30.50;;
78927;SDS011;68322;22.726;113.540;2023-03-31T00:06:43;152.82;;;33.90;;
78927;SDS011;68322;22.726;113.540;2023-03-31T00:09:12;142.10;;;34.67;;
78927;SDS011;68322;22.726;113.540;2023-03-31T00:11:40;141.05;;;32.53;;
78927;SDS011;68322;22.726;113.540;2023-03-31T00:14:07;128.23;;;30.92;;
78927;SDS011;68322;22.726;113.540;2023-03-31T00:16:37;165.10;;;33.38;;
78927;SDS011;68322;22.726;113.540;2023-03-31T00:19:04;138.27;;;32.65;;
78927;SDS011;68322;22.726;113.540;2023-03-31T00:21:34;135.35;;;31.15;;
78927;SDS011;68322;22.726;113.540;2023-03-31T00:24:02;165.50;;;33.25;;
78927;SDS011;68322;22.726;113.540;2023-03-31T00:26:29;129.38;;;29.15;;
78927;SDS011;68322;22.726;113.540;2023-03-31T00:28:55;153.57;;;31.60;;
78927;SDS011;68322;22.726;113.540;2023-03-31T00:31:23;151.30;;;32.92;;
78927;SDS011;68322;22.726;113.540;2023-03-31T00:36:17;152.07;;;33.40;;
78927;SDS011;68322;22.726;113.540;2023-03-31T00:39:02;137.05;;;32.47;;
78927;SDS011;68322;22.726;113.540;2023-03-31T00:41:34;141.77;;;32.53;;
78927;SDS011;68322;22.726;113.540;2023-03-31T00:44:16;115.55;;;30.40;;
78927;SDS011;68322;22.726;113.540;2023-03-31T00:49:24;106.78;;;28.65;;
78927;SDS011;68322;22.726;113.540;2023-03-31T00:51:53;89.38;;;29.20;;
78927;SDS011;68322;22.726;113.540;2023-03-31T00:54:20;106.80;;;29.10;;
78927;SDS011;68322;22.726;113.540;2023-03-31T00:56:50;100.68;;;28.95;;
78927;SDS011;68322;22.726;113.540;2023-03-31T00:59:19;80.03;;;26.85;;
78927;SDS011;68322;22.726;113.540;2023-03-31T01:01:51;92.93;;;27.45;;
78927;SDS011;68322;22.726;113.540;2023-03-31T01:04:19;101.82;;;29.27;;
78927;SDS011;68322;22.726;113.540;2023-03-31T01:06:54;82.82;;;29.13;;
78927;SDS011;68322;22.726;113.540;2023-03-31T01:09:26;112.28;;;30.90;;
78927;SDS011;68322;22.726;113.540;2023-03-31T01:11:55;147.73;;;31.40;;
78927;SDS011;68322;22.726;113.540;2023-03-31T01:14:22;111.15;;;31.80;;
78927;SDS011;68322;22.726;113.540;2023-03-31T01:16:48;112.22;;;30.30;;
78927;SDS011;68322;22.726;113.540;2023-03-31T01:19:20;111.63;;;29.63;;
78927;SDS011;68322;22.726;113.540;2023-03-31T01:21:56;106.10;;;30.30;;
78927;SDS011;68322;22.726;113.540;2023-03-31T01:30:33;93.40;;;27.70;;
78927;SDS011;68322;22.726;113.540;2023-03-31T01:45:43;80.93;;;27.67;;
78927;SDS011;68322;22.726;113.540;2023-03-31T01:48:59;92.90;;;28.08;;
78927;SDS011;68322;22.726;113.540;2023-03-31T01:51:11;97.63;;;28.85;;
78927;SDS011;68322;22.726;113.540;2023-03-31T01:53:49;115.22;;;29.30;;
78927;SDS011;68322;22.726;113.540;2023-03-31T01:56:20;89.63;;;28.17;;
78927;SDS011;68322;22.726;113.540;2023-03-31T02:01:26;115.07;;;32.40;;
78927;SDS011;68322;22.726;113.540;2023-03-31T02:03:59;113.22;;;30.40;;
78927;SDS011;68322;22.726;113.540;2023-03-31T02:06:27;111.55;;;32.05;;
78927;SDS011;68322;22.726;113.540;2023-03-31T02:08:57;116.90;;;32.50;;
78927;SDS011;68322;22.726;113.540;2023-03-31T02:11:26;135.80;;;33.42;;
78927;SDS011;68322;22.726;113.540;2023-03-31T02:13:55;127.47;;;33.55;;
78927;SDS011;68322;22.726;113.540;2023-03-31T02:16:23;133.77;;;34.50;;
78927;SDS011;68322;22.726;113.540;2023-03-31T02:18:55;133.70;;;34.20;;
78927;SDS011;68322;22.726;113.540;2023-03-31T02:21:27;124.10;;;33.70;;
78927;SDS011;68322;22.726;113.540;2023-03-31T02:23:55;112.53;;;31.65;;
78927;SDS011;68322;22.726;113.540;2023-03-31T02:26:26;122.82;;;32.85;;
78927;SDS011;68322;22.726;113.540;2023-03-31T02:28:55;105.35;;;30.73;;
78927;SDS011;68322;22.726;113.540;2023-03-31T02:33:52;97.72;;;26.92;;
78927;SDS011;68322;22.726;113.540;2023-03-31T02:36:19;87.35;;;29.27;;
78927;SDS011;68322;22.726;113.540;2023-03-31T02:39:20;85.68;;;28.05;;
78927;SDS011;68322;22.726;113.540;2023-03-31T02:41:38;84.82;;;28.13;;
78927;SDS011;68322;22.726;113.540;2023-03-31T02:46:50;88.13;;;29.65;;
78927;SDS011;68322;22.726;113.540;2023-03-31T02:49:17;85.82;;;28.27;;
78927;SDS011;68322;22.726;113.540;2023-03-31T03:02:12;155.25;;;41.10;;
78927;SDS011;68322;22.726;113.540;2023-03-31T03:04:57;145.93;;;39.13;;
78927;SDS011;68322;22.726;113.540;2023-03-31T03:07:46;153.75;;;41.97;;
78927;SDS011;68322;22.726;113.540;2023-03-31T03:10:19;152.43;;;40.25;;
78927;SDS011;68322;22.726;113.540;2023-03-31T03:18:08;155.35;;;39.83;;
78927;SDS011;68322;22.726;113.540;2023-03-31T03:23:39;138.48;;;39.28;;
78927;SDS011;68322;22.726;113.540;2023-03-31T03:26:08;138.32;;;38.10;;
78927;SDS011;68322;22.726;113.540;2023-03-31T03:28:34;164.75;;;38.00;;
78927;SDS011;68322;22.726;113.540;2023-03-31T03:31:01;152.85;;;38.70;;
78927;SDS011;68322;22.726;113.540;2023-03-31T03:36:21;131.23;;;34.50;;
78927;SDS011;68322;22.726;113.540;2023-03-31T03:38:48;135.88;;;35.67;;
78927;SDS011;68322;22.726;113.540;2023-03-31T03:41:15;123.43;;;32.47;;
78927;SDS011;68322;22.726;113.540;2023-03-31T03:43:42;133.05;;;36.53;;
78927;SDS011;68322;22.726;113.540;2023-03-31T03:46:08;122.18;;;34.03;;
78927;SDS011;68322;22.726;113.540;2023-03-31T03:51:21;141.77;;;37.25;;
78927;SDS011;68322;22.726;113.540;2023-03-31T03:56:33;140.05;;;34.70;;
78927;SDS011;68322;22.726;113.540;2023-03-31T03:59:00;174.75;;;40.97;;
78927;SDS011;68322;22.726;113.540;2023-03-31T04:01:26;160.02;;;40.33;;
78927;SDS011;68322;22.726;113.540;2023-03-31T04:03:53;178.13;;;42.53;;
78927;SDS011;68322;22.726;113.540;2023-03-31T04:06:23;188.32;;;43.08;;
78927;SDS011;68322;22.726;113.540;2023-03-31T04:08:51;178.95;;;44.40;;
78927;SDS011;68322;22.726;113.540;2023-03-31T04:11:18;165.15;;;41.50;;
78927;SDS011;68322;22.726;113.540;2023-03-31T04:13:47;151.88;;;40.83;;
78927;SDS011;68322;22.726;113.540;2023-03-31T04:16:13;162.57;;;40.67;;
78927;SDS011;68322;22.726;113.540;2023-03-31T04:18:41;140.75;;;38.97;;
78927;SDS011;68322;22.726;113.540;2023-03-31T04:21:08;133.95;;;39.00;;
78927;SDS011;68322;22.726;113.540;2023-03-31T04:23:37;156.18;;;40.80;;
78927;SDS011;68322;22.726;113.540;2023-03-31T04:26:16;173.27;;;42.55;;
78927;SDS011;68322;22.726;113.540;2023-03-31T04:28:50;146.10;;;40.42;;
78927;SDS011;68322;22.726;113.540;2023-03-31T04:31:17;172.52;;;41.20;;
78927;SDS011;68322;22.726;113.540;2023-03-31T04:33:52;147.50;;;39.58;;
78927;SDS011;68322;22.726;113.540;2023-03-31T04:36:19;159.25;;;42.40;;
78927;SDS011;68322;22.726;113.540;2023-03-31T04:38:47;161.60;;;40.90;;
78927;SDS011;68322;22.726;113.540;2023-03-31T04:41:19;165.88;;;41.40;;
78927;SDS011;68322;22.726;113.540;2023-03-31T04:43:46;178.13;;;43.63;;
78927;SDS011;68322;22.726;113.540;2023-03-31T04:46:13;178.20;;;43.85;;
78927;SDS011;68322;22.726;113.540;2023-03-31T04:48:52;162.23;;;41.17;;
78927;SDS011;68322;22.726;113.540;2023-03-31T04:51:18;164.77;;;44.78;;
78927;SDS011;68322;22.726;113.540;2023-03-31T04:53:45;169.30;;;40.92;;
78927;SDS011;68322;22.726;113.540;2023-03-31T04:56:12;171.38;;;41.28;;
78927;SDS011;68322;22.726;113.540;2023-03-31T04:58:40;171.38;;;42.85;;
78927;SDS011;68322;22.726;113.540;2023-03-31T05:01:10;146.18;;;39.03;;
78927;SDS011;68322;22.726;113.540;2023-03-31T05:03:38;161.10;;;42.22;;
78927;SDS011;68322;22.726;113.540;2023-03-31T05:06:06;133.77;;;40.35;;
78927;SDS011;68322;22.726;113.540;2023-03-31T05:08:33;153.65;;;45.28;;
78927;SDS011;68322;22.726;113.540;2023-03-31T05:11:01;145.35;;;38.90;;
78927;SDS011;68322;22.726;113.540;2023-03-31T05:13:28;125.53;;;36.40;;
78927;SDS011;68322;22.726;113.540;2023-03-31T05:15:54;128.60;;;38.78;;
78927;SDS011;68322;22.726;113.540;2023-03-31T05:18:21;137.60;;;41.53;;
78927;SDS011;68322;22.726;113.540;2023-03-31T05:20:48;142.77;;;40.75;;
78927;SDS011;68322;22.726;113.540;2023-03-31T05:23:16;139.68;;;41.28;;
78927;SDS011;68322;22.726;113.540;2023-03-31T05:25:44;136.80;;;40.55;;
78927;SDS011;68322;22.726;113.540;2023-03-31T05:28:12;122.13;;;39.97;;
78927;SDS011;68322;22.726;113.540;2023-03-31T05:30:39;109.18;;;37.45;;
78927;SDS011;68322;22.726;113.540;2023-03-31T05:33:06;140.68;;;39.83;;
78927;SDS011;68322;22.726;113.540;2023-03-31T05:35:33;123.18;;;38.53;;
78927;SDS011;68322;22.726;113.540;2023-03-31T05:37:59;166.25;;;43.92;;
78927;SDS011;68322;22.726;113.540;2023-03-31T05:40:26;164.25;;;43.58;;
78927;SDS011;68322;22.726;113.540;2023-03-31T05:42:53;158.82;;;45.72;;
78927;SDS011;68322;22.726;113.540;2023-03-31T05:45:20;174.52;;;47.83;;
78927;SDS011;68322;22.726;113.540;2023-03-31T05:47:46;159.57;;;42.33;;
78927;SDS011;68322;22.726;113.540;2023-03-31T05:50:13;171.82;;;46.22;;
78927;SDS011;68322;22.726;113.540;2023-03-31T05:52:40;177.88;;;46.38;;
78927;SDS011;68322;22.726;113.540;2023-03-31T05:55:07;194.65;;;51.42;;
78927;SDS011;68322;22.726;113.540;2023-03-31T05:57:33;176.75;;;47.45;;
78927;SDS011;68322;22.726;113.540;2023-03-31T06:00:00;185.10;;;45.70;;
78927;SDS011;68322;22.726;113.540;2023-03-31T06:02:27;171.30;;;47.42;;
78927;SDS011;68322;22.726;113.540;2023-03-31T06:04:55;191.52;;;48.83;;
78927;SDS011;68322;22.726;113.540;2023-03-31T06:07:22;216.15;;;50.92;;
78927;SDS011;68322;22.726;113.540;2023-03-31T06:09:51;213.88;;;50.72;;
78927;SDS011;68322;22.726;113.540;2023-03-31T06:12:20;189.00;;;46.70;;
78927;SDS011;68322;22.726;113.540;2023-03-31T06:14:48;177.30;;;46.85;;
78927;SDS011;68322;22.726;113.540;2023-03-31T06:17:15;166.38;;;45.88;;
78927;SDS011;68322;22.726;113.540;2023-03-31T06:19:42;178.63;;;45.92;;
78927;SDS011;68322;22.726;113.540;2023-03-31T06:22:08;174.98;;;45.67;;
78927;SDS011;68322;22.726;113.540;2023-03-31T06:24:36;176.38;;;42.58;;
78927;SDS011;68322;22.726;113.540;2023-03-31T06:27:08;166.15;;;42.83;;
78927;SDS011;68322;22.726;113.540;2023-03-31T06:29:35;151.85;;;44.63;;
78927;SDS011;68322;22.726;113.540;2023-03-31T06:32:01;142.25;;;39.67;;
78927;SDS011;68322;22.726;113.540;2023-03-31T06:34:31;131.40;;;39.45;;
78927;SDS011;68322;22.726;113.540;2023-03-31T06:36:58;127.32;;;39.63;;
78927;SDS011;68322;22.726;113.540;2023-03-31T06:39:24;137.25;;;41.60;;
78927;SDS011;68322;22.726;113.540;2023-03-31T06:41:51;112.43;;;39.83;;
78927;SDS011;68322;22.726;113.540;2023-03-31T06:44:18;115.38;;;40.15;;
78927;SDS011;68322;22.726;113.540;2023-03-31T06:46:47;155.70;;;42.53;;
78927;SDS011;68322;22.726;113.540;2023-03-31T06:49:14;150.95;;;44.83;;
78927;SDS011;68322;22.726;113.540;2023-03-31T06:51:41;140.70;;;42.22;;
78927;SDS011;68322;22.726;113.540;2023-03-31T06:54:08;156.20;;;43.47;;
78927;SDS011;68322;22.726;113.540;2023-03-31T06:59:02;175.05;;;49.58;;
78927;SDS011;68322;22.726;113.540;2023-03-31T07:01:29;180.23;;;48.53;;
78927;SDS011;68322;22.726;113.540;2023-03-31T07:03:56;207.00;;;52.45;;
78927;SDS011;68322;22.726;113.540;2023-03-31T07:06:23;184.15;;;50.97;;
78927;SDS011;68322;22.726;113.540;2023-03-31T07:08:52;190.57;;;53.63;;
78927;SDS011;68322;22.726;113.540;2023-03-31T07:11:18;186.48;;;52.08;;
78927;SDS011;68322;22.726;113.540;2023-03-31T07:13:45;182.55;;;52.97;;
78927;SDS011;68322;22.726;113.540;2023-03-31T07:16:12;171.95;;;50.15;;
78927;SDS011;68322;22.726;113.540;2023-03-31T07:18:39;166.73;;;49.30;;
78927;SDS011;68322;22.726;113.540;2023-03-31T07:21:06;156.02;;;47.78;;
78927;SDS011;68322;22.726;113.540;2023-03-31T07:23:33;148.52;;;47.63;;
78927;SDS011;68322;22.726;113.540;2023-03-31T07:26:00;134.43;;;46.97;;
78927;SDS011;68322;22.726;113.540;2023-03-31T07:28:27;136.88;;;46.22;;
78927;SDS011;68322;22.726;113.540;2023-03-31T07:30:54;124.78;;;43.42;;
78927;SDS011;68322;22.726;113.540;2023-03-31T07:33:21;130.38;;;45.65;;
78927;SDS011;68322;22.726;113.540;2023-03-31T07:35:48;114.10;;;42.40;;
78927;SDS011;68322;22.726;113.540;2023-03-31T07:38:14;119.93;;;42.20;;
78927;SDS011;68322;22.726;113.540;2023-03-31T07:40:42;115.90;;;38.75;;
78927;SDS011;68322;22.726;113.540;2023-03-31T07:45:36;109.97;;;42.22;;
78927;SDS011;68322;22.726;113.540;2023-03-31T07:48:04;104.90;;;41.05;;
78927;SDS011;68322;22.726;113.540;2023-03-31T07:50:33;105.13;;;40.50;;
78927;SDS011;68322;22.726;113.540;2023-03-31T07:52:59;92.50;;;38.15;;
78927;SDS011;68322;22.726;113.540;2023-03-31T07:55:26;125.28;;;42.25;;
78927;SDS011;68322;22.726;113.540;2023-03-31T07:57:53;133.48;;;45.17;;
78927;SDS011;68322;22.726;113.540;2023-03-31T08:00:20;116.72;;;41.80;;
78927;SDS011;68322;22.726;113.540;2023-03-31T08:02:46;114.55;;;41.20;;
78927;SDS011;68322;22.726;113.540;2023-03-31T08:05:14;139.35;;;46.17;;
78927;SDS011;68322;22.726;113.540;2023-03-31T08:07:42;148.32;;;44.80;;
78927;SDS011;68322;22.726;113.540;2023-03-31T08:10:11;148.73;;;43.97;;
78927;SDS011;68322;22.726;113.540;2023-03-31T08:12:38;143.77;;;42.45;;
78927;SDS011;68322;22.726;113.540;2023-03-31T08:15:06;127.35;;;44.10;;
78927;SDS011;68322;22.726;113.540;2023-03-31T08:17:32;120.45;;;41.38;;
78927;SDS011;68322;22.726;113.540;2023-03-31T08:19:59;114.82;;;43.05;;
78927;SDS011;68322;22.726;113.540;2023-03-31T08:22:26;118.75;;;43.03;;
78927;SDS011;68322;22.726;113.540;2023-03-31T08:24:53;96.70;;;37.72;;
78927;SDS011;68322;22.726;113.540;2023-03-31T08:27:20;105.20;;;40.15;;
78927;SDS011;68322;22.726;113.540;2023-03-31T08:29:46;93.78;;;37.88;;
78927;SDS011;68322;22.726;113.540;2023-03-31T08:32:16;95.32;;;36.45;;
78927;SDS011;68322;22.726;113.540;2023-03-31T08:34:43;86.47;;;36.00;;
78927;SDS011;68322;22.726;113.540;2023-03-31T08:37:13;96.60;;;36.90;;
78927;SDS011;68322;22.726;113.540;2023-03-31T08:39:40;101.25;;;35.92;;
78927;SDS011;68322;22.726;113.540;2023-03-31T08:42:10;97.68;;;36.47;;
78927;SDS011;68322;22.726;113.540;2023-03-31T08:44:41;108.43;;;35.90;;
78927;SDS011;68322;22.726;113.540;2023-03-31T08:47:20;108.13;;;37.70;;
78927;SDS011;68322;22.726;113.540;2023-03-31T08:49:51;118.68;;;40.10;;
78927;SDS011;68322;22.726;113.540;2023-03-31T08:52:22;120.88;;;39.65;;
78927;SDS011;68322;22.726;113.540;2023-03-31T08:54:50;143.20;;;41.42;;
78927;SDS011;68322;22.726;113.540;2023-03-31T08:57:25;149.55;;;41.58;;
78927;SDS011;68322;22.726;113.540;2023-03-31T08:59:54;150.02;;;40.58;;
78927;SDS011;68322;22.726;113.540;2023-03-31T09:03:44;151.57;;;43.65;;
78927;SDS011;68322;22.726;113.540;2023-03-31T09:05:43;153.18;;;41.90;;
78927;SDS011;68322;22.726;113.540;2023-03-31T09:13:20;159.98;;;40.40;;
78927;SDS011;68322;22.726;113.540;2023-03-31T09:16:01;149.88;;;42.20;;
78927;SDS011;68322;22.726;113.540;2023-03-31T09:18:39;133.68;;;39.42;;
78927;SDS011;68322;22.726;113.540;2023-03-31T09:29:01;116.13;;;37.78;;
78927;SDS011;68322;22.726;113.540;2023-03-31T09:31:32;108.25;;;37.58;;
78927;SDS011;68322;22.726;113.540;2023-03-31T09:34:00;101.63;;;36.25;;
78927;SDS011;68322;22.726;113.540;2023-03-31T09:36:27;100.38;;;36.33;;
78927;SDS011;68322;22.726;113.540;2023-03-31T09:38:53;98.22;;;36.60;;
78927;SDS011;68322;22.726;113.540;2023-03-31T09:41:20;95.70;;;34.38;;
78927;SDS011;68322;22.726;113.540;2023-03-31T09:43:47;88.80;;;32.95;;
78927;SDS011;68322;22.726;113.540;2023-03-31T09:46:17;97.60;;;34.33;;
78927;SDS011;68322;22.726;113.540;2023-03-31T09:49:08;85.78;;;31.45;;
78927;SDS011;68322;22.726;113.540;2023-03-31T09:51:36;98.75;;;33.28;;
78927;SDS011;68322;22.726;113.540;2023-03-31T09:54:11;106.65;;;35.70;;
78927;SDS011;68322;22.726;113.540;2023-03-31T09:59:14;104.07;;;35.83;;
78927;SDS011;68322;22.726;113.540;2023-03-31T10:01:45;110.05;;;34.67;;
78927;SDS011;68322;22.726;113.540;2023-03-31T10:04:16;103.10;;;35.17;;
78927;SDS011;68322;22.726;113.540;2023-03-31T10:06:44;114.50;;;35.55;;
78927;SDS011;68322;22.726;113.540;2023-03-31T10:09:11;92.15;;;34.28;;
78927;SDS011;68322;22.726;113.540;2023-03-31T10:11:39;90.68;;;34.03;;
78927;SDS011;68322;22.726;113.540;2023-03-31T10:14:16;90.10;;;34.33;;
78927;SDS011;68322;22.726;113.540;2023-03-31T10:16:53;94.28;;;35.35;;
78927;SDS011;68322;22.726;113.540;2023-03-31T10:21:54;90.82;;;30.63;;
78927;SDS011;68322;22.726;113.540;2023-03-31T10:24:21;86.40;;;33.97;;
78927;SDS011;68322;22.726;113.540;2023-03-31T10:26:49;86.00;;;33.55;;
78927;SDS011;68322;22.726;113.540;2023-03-31T10:29:20;83.82;;;32.95;;
78927;SDS011;68322;22.726;113.540;2023-03-31T10:31:49;86.80;;;32.22;;
78927;SDS011;68322;22.726;113.540;2023-03-31T10:34:16;103.30;;;36.28;;
78927;SDS011;68322;22.726;113.540;2023-03-31T10:36:47;81.25;;;32.55;;
78927;SDS011;68322;22.726;113.540;2023-03-31T10:39:18;87.43;;;33.22;;
78927;SDS011;68322;22.726;113.540;2023-03-31T10:41:54;86.18;;;33.90;;
78927;SDS011;68322;22.726;113.540;2023-03-31T10:44:31;77.53;;;32.80;;
78927;SDS011;68322;22.726;113.540;2023-03-31T10:47:05;80.10;;;31.05;;
78927;SDS011;68322;22.726;113.540;2023-03-31T10:49:36;77.38;;;28.73;;
78927;SDS011;68322;22.726;113.540;2023-03-31T10:52:14;70.05;;;30.30;;
78927;SDS011;68322;22.726;113.540;2023-03-31T10:54:47;67.18;;;28.23;;
78927;SDS011;68322;22.726;113.540;2023-03-31T10:57:14;55.30;;;25.85;;
78927;SDS011;68322;22.726;113.540;2023-03-31T11:15:24;52.40;;;25.45;;
78927;SDS011;68322;22.726;113.540;2023-03-31T11:20:48;57.22;;;19.92;;
78927;SDS011;68322;22.726;113.540;2023-03-31T11:23:40;40.70;;;21.70;;
78927;SDS011;68322;22.726;113.540;2023-03-31T11:42:20;56.28;;;27.67;;
78927;SDS011;68322;22.726;113.540;2023-03-31T11:44:50;64.88;;;28.10;;
78927;SDS011;68322;22.726;113.540;2023-03-31T11:47:20;60.72;;;28.20;;
78927;SDS011;68322;22.726;113.540;2023-03-31T11:49:58;72.35;;;27.15;;
78927;SDS011;68322;22.726;113.540;2023-03-31T11:52:32;90.20;;;30.25;;
78927;SDS011;68322;22.726;113.540;2023-03-31T11:59:58;110.10;;;35.88;;
78927;SDS011;68322;22.726;113.540;2023-03-31T12:05:14;89.57;;;33.75;;
78927;SDS011;68322;22.726;113.540;2023-03-31T12:10:18;90.72;;;31.80;;
78927;SDS011;68322;22.726;113.540;2023-03-31T12:12:48;91.88;;;32.30;;
78927;SDS011;68322;22.726;113.540;2023-03-31T12:16:00;85.35;;;33.38;;
78927;SDS011;68322;22.726;113.540;2023-03-31T12:20:46;96.85;;;34.22;;
78927;SDS011;68322;22.726;113.540;2023-03-31T12:23:18;103.30;;;32.17;;
78927;SDS011;68322;22.726;113.540;2023-03-31T12:30:41;104.78;;;33.90;;
78927;SDS011;68322;22.726;113.540;2023-03-31T12:33:23;109.85;;;33.88;;
78927;SDS011;68322;22.726;113.540;2023-03-31T12:35:55;121.60;;;37.40;;
78927;SDS011;68322;22.726;113.540;2023-03-31T12:41:10;119.05;;;36.20;;
78927;SDS011;68322;22.726;113.540;2023-03-31T12:46:51;158.02;;;41.55;;
78927;SDS011;68322;22.726;113.540;2023-03-31T12:52:00;168.57;;;43.88;;
78927;SDS011;68322;22.726;113.540;2023-03-31T12:55:18;153.70;;;44.38;;
78927;SDS011;68322;22.726;113.540;2023-03-31T12:57:24;165.70;;;46.08;;
78927;SDS011;68322;22.726;113.540;2023-03-31T13:00:12;161.23;;;44.33;;
78927;SDS011;68322;22.726;113.540;2023-03-31T13:02:41;145.13;;;40.83;;
78927;SDS011;68322;22.726;113.540;2023-03-31T13:07:53;149.32;;;45.03;;
78927;SDS011;68322;22.726;113.540;2023-03-31T13:10:24;144.90;;;48.15;;
78927;SDS011;68322;22.726;113.540;2023-03-31T13:12:56;162.43;;;47.20;;
78927;SDS011;68322;22.726;113.540;2023-03-31T13:15:23;171.43;;;48.75;;
78927;SDS011;68322;22.726;113.540;2023-03-31T13:18:12;169.57;;;47.95;;
78927;SDS011;68322;22.726;113.540;2023-03-31T13:20:40;152.00;;;45.25;;
78927;SDS011;68322;22.726;113.540;2023-03-31T13:35:37;129.02;;;42.00;;
78927;SDS011;68322;22.726;113.540;2023-03-31T13:45:46;121.35;;;39.03;;
78927;SDS011;68322;22.726;113.540;2023-03-31T13:56:08;145.90;;;46.17;;
78927;SDS011;68322;22.726;113.540;2023-03-31T14:01:15;162.27;;;45.42;;
78927;SDS011;68322;22.726;113.540;2023-03-31T14:06:39;157.75;;;45.28;;
78927;SDS011;68322;22.726;113.540;2023-03-31T14:09:11;150.25;;;47.38;;
78927;SDS011;68322;22.726;113.540;2023-03-31T14:11:40;183.80;;;49.95;;
78927;SDS011;68322;22.726;113.540;2023-03-31T14:16:40;187.95;;;53.70;;
78927;SDS011;68322;22.726;113.540;2023-03-31T14:26:45;186.02;;;50.38;;
78927;SDS011;68322;22.726;113.540;2023-03-31T14:32:06;197.25;;;54.42;;
78927;SDS011;68322;22.726;113.540;2023-03-31T14:37:06;187.07;;;51.67;;
78927;SDS011;68322;22.726;113.540;2023-03-31T14:39:36;209.38;;;54.42;;
78927;SDS011;68322;22.726;113.540;2023-03-31T14:42:09;209.73;;;55.67;;
78927;SDS011;68322;22.726;113.540;2023-03-31T14:44:37;226.95;;;59.17;;
78927;SDS011;68322;22.726;113.540;2023-03-31T14:47:12;222.95;;;58.67;;
78927;SDS011;68322;22.726;113.540;2023-03-31T14:50:04;220.27;;;57.13;;
78927;SDS011;68322;22.726;113.540;2023-03-31T14:52:35;239.45;;;57.35;;
78927;SDS011;68322;22.726;113.540;2023-03-31T14:55:02;243.55;;;60.58;;
78927;SDS011;68322;22.726;113.540;2023-03-31T15:04:54;188.85;;;51.10;;
78927;SDS011;68322;22.726;113.540;2023-03-31T15:07:22;203.98;;;60.40;;
78927;SDS011;68322;22.726;113.540;2023-03-31T15:09:49;205.10;;;58.15;;
78927;SDS011;68322;22.726;113.540;2023-03-31T15:12:19;223.77;;;57.42;;
78927;SDS011;68322;22.726;113.540;2023-03-31T15:14:48;206.32;;;60.25;;
78927;SDS011;68322;22.726;113.540;2023-03-31T15:19:43;214.13;;;57.33;;
78927;SDS011;68322;22.726;113.540;2023-03-31T15:22:13;203.57;;;56.67;;
78927;SDS011;68322;22.726;113.540;2023-03-31T15:24:43;229.50;;;62.08;;
78927;SDS011;68322;22.726;113.540;2023-03-31T15:27:53;210.90;;;56.92;;
78927;SDS011;68322;22.726;113.540;2023-03-31T15:30:03;215.60;;;57.15;;
78927;SDS011;68322;22.726;113.540;2023-03-31T15:32:36;204.30;;;53.00;;
78927;SDS011;68322;22.726;113.540;2023-03-31T15:35:05;212.68;;;58.00;;
78927;SDS011;68322;22.726;113.540;2023-03-31T15:37:37;211.20;;;57.47;;
78927;SDS011;68322;22.726;113.540;2023-03-31T15:42:42;195.18;;;54.90;;
78927;SDS011;68322;22.726;113.540;2023-03-31T15:45:23;191.93;;;57.10;;
78927;SDS011;68322;22.726;113.540;2023-03-31T15:48:01;178.75;;;51.78;;
78927;SDS011;68322;22.726;113.540;2023-03-31T15:50:31;181.57;;;51.00;;
78927;SDS011;68322;22.726;113.540;2023-03-31T15:52:59;184.98;;;52.88;;
78927;SDS011;68322;22.726;113.540;2023-03-31T15:55:30;189.20;;;53.20;;
78927;SDS011;68322;22.726;113.540;2023-03-31T15:57:58;176.85;;;51.83;;
78927;SDS011;68322;22.726;113.540;2023-03-31T16:00:42;181.32;;;51.47;;
78927;SDS011;68322;22.726;113.540;2023-03-31T16:03:45;194.73;;;53.47;;
78927;SDS011;68322;22.726;113.540;2023-03-31T16:09:00;209.90;;;52.17;;
78927;SDS011;68322;22.726;113.540;2023-03-31T16:11:41;220.10;;;54.10;;
78927;SDS011;68322;22.726;113.540;2023-03-31T16:14:53;223.98;;;56.28;;
78927;SDS011;68322;22.726;113.540;2023-03-31T16:17:17;240.93;;;61.40;;
78927;SDS011;68322;22.726;113.540;2023-03-31T16:19:47;231.73;;;62.88;;
78927;SDS011;68322;22.726;113.540;2023-03-31T16:22:20;244.63;;;60.63;;
78927;SDS011;68322;22.726;113.540;2023-03-31T16:24:47;228.02;;;59.63;;
78927;SDS011;68322;22.726;113.540;2023-03-31T16:27:15;226.25;;;55.80;;
78927;SDS011;68322;22.726;113.540;2023-03-31T16:29:42;237.05;;;62.28;;
78927;SDS011;68322;22.726;113.540;2023-03-31T16:32:12;243.35;;;60.28;;
78927;SDS011;68322;22.726;113.540;2023-03-31T16:34:52;231.32;;;60.72;;
78927;SDS011;68322;22.726;113.540;2023-03-31T16:37:24;242.30;;;58.63;;
78927;SDS011;68322;22.726;113.540;2023-03-31T16:39:51;241.32;;;60.40;;
78927;SDS011;68322;22.726;113.540;2023-03-31T16:42:18;240.70;;;61.00;;
78927;SDS011;68322;22.726;113.540;2023-03-31T16:44:45;218.13;;;58.28;;
78927;SDS011;68322;22.726;113.540;2023-03-31T16:47:12;224.73;;;57.65;;
78927;SDS011;68322;22.726;113.540;2023-03-31T16:49:45;202.38;;;54.50;;
78927;SDS011;68322;22.726;113.540;2023-03-31T16:52:11;221.80;;;57.75;;
78927;SDS011;68322;22.726;113.540;2023-03-31T16:54:38;226.93;;;58.60;;
78927;SDS011;68322;22.726;113.540;2023-03-31T16:57:05;224.13;;;57.30;;
78927;SDS011;68322;22.726;113.540;2023-03-31T16:59:35;218.63;;;58.97;;
78927;SDS011;68322;22.726;113.540;2023-03-31T17:02:02;207.52;;;54.72;;
78927;SDS011;68322;22.726;113.540;2023-03-31T17:04:29;227.20;;;58.63;;
78927;SDS011;68322;22.726;113.540;2023-03-31T17:06:56;224.38;;;57.40;;
78927;SDS011;68322;22.726;113.540;2023-03-31T17:09:22;226.50;;;57.17;;
78927;SDS011;68322;22.726;113.540;2023-03-31T17:11:49;207.73;;;58.83;;
78927;SDS011;68322;22.726;113.540;2023-03-31T17:14:16;291.23;;;56.03;;
78927;SDS011;68322;22.726;113.540;2023-03-31T17:16:43;220.48;;;58.30;;
78927;SDS011;68322;22.726;113.540;2023-03-31T17:19:10;269.35;;;57.97;;
78927;SDS011;68322;22.726;113.540;2023-03-31T17:21:38;227.55;;;56.80;;
78927;SDS011;68322;22.726;113.540;2023-03-31T17:24:06;227.95;;;57.53;;
78927;SDS011;68322;22.726;113.540;2023-03-31T17:26:35;259.08;;;61.17;;
78927;SDS011;68322;22.726;113.540;2023-03-31T17:29:03;271.85;;;60.15;;
78927;SDS011;68322;22.726;113.540;2023-03-31T17:31:30;700.00;;;83.05;;
78927;SDS011;68322;22.726;113.540;2023-03-31T17:34:02;433.13;;;67.78;;